หน้าหลัก
METAR-TAF:

METAR-TAF

ท่าอากาศยาน :

ชีเชนอิตซา, เม็กซิโก

ละติจูด: 20-38-30N, ลองจิจูด: 088-26-58W, ความสูง: 31 ม.

การสังเกตสภาพอากาศปัจจุบัน

รายงานได้ทำขึ้นเมื่อ 9 ชั่วโมงและ 32 นาทีที่แล้ว ณ เวลา 23:45 UTC
ลม 10 นอตจากตะวันออกเฉียงเหนือ
อุณหภูมิ 25°C
ความชื้น 94%
ความกดอากาศ 1008 hPa
ทัศนวิสัย: 9.7 กม.
มีเมฆเป็นส่วนมากเว้นเป็นระยะที่ความสูง 1500 ฟุต
มีเมฆเป็นส่วนมากเว้นเป็นระยะที่ความสูง 10000 ฟุต
มีเมฆมาก มืดครึ้มที่ความสูง 25000 ฟุต

METAR: MMCT 162345Z 05010KT 6SM BKN015 BKN100 OVC250 25/24 A2976 RMK 8/473 HZY VRB COND

เวลา: 04:17 (09:17 UTC)


TAF: หายไป

สังเกตการณ์สภาพอากาศและพยากรณ์อากาศของสนามบินมากกว่า 4000 แห่ง (รายงาน METAR และ TAF).

สถานีที่ดูได้จะแสดงไว้ด้วยจุดสีเหลืองและสีแดงบนแผนที่.

เลื่อนเมาส์ไปเหนือจุดเพื่อดูชื่อสถานี.

แล้วคลิกเพื่อดูสังเกตการณ์และการพยากรณ์สภาพอากาศ.

ในการเปลี่ยนแผนที่: คลิกที่ปุ่มสีเขียวที่มีกากบาทสีดำเพื่อซูมเข้า; ที่ปุ่มสีเขียวที่มีขีดเพื่อซูมออก; หรือที่ลูกศรสีเขียวเพื่อไปยังแผนที่ที่อยู่ติดกัน.


METAR-TAF: